sensor_id;sensor_type;location;lat;lon;timestamp;pressure;altitude;pressure_sealevel;temperature;humidity
19108;BME280;9686;48.832;9.126;2022-10-19T00:01:24;99198.59;;;14.91;100.00
19108;BME280;9686;48.832;9.126;2022-10-19T00:03:52;99187.25;;;14.88;100.00
19108;BME280;9686;48.832;9.126;2022-10-19T00:08:51;99183.84;;;14.75;100.00
19108;BME280;9686;48.832;9.126;2022-10-19T00:11:16;99183.00;;;14.71;100.00
19108;BME280;9686;48.832;9.126;2022-10-19T00:13:42;99183.00;;;14.71;100.00
19108;BME280;9686;48.832;9.126;2022-10-19T00:16:10;99187.38;;;14.71;100.00
19108;BME280;9686;48.832;9.126;2022-10-19T00:18:35;99192.69;;;14.63;100.00
19108;BME280;9686;48.832;9.126;2022-10-19T00:21:03;99193.59;;;14.53;100.00
19108;BME280;9686;48.832;9.126;2022-10-19T00:23:28;99191.88;;;14.50;100.00
19108;BME280;9686;48.832;9.126;2022-10-19T00:25:57;99184.00;;;14.49;100.00
19108;BME280;9686;48.832;9.126;2022-10-19T00:28:23;99185.75;;;14.48;100.00
19108;BME280;9686;48.832;9.126;2022-10-19T00:30:48;99184.88;;;14.48;100.00
19108;BME280;9686;48.832;9.126;2022-10-19T00:33:13;99191.00;;;14.47;100.00
19108;BME280;9686;48.832;9.126;2022-10-19T00:35:44;99194.53;;;14.43;100.00
19108;BME280;9686;48.832;9.126;2022-10-19T00:38:12;99194.56;;;14.31;100.00
19108;BME280;9686;48.832;9.126;2022-10-19T00:40:39;99198.94;;;14.29;100.00
19108;BME280;9686;48.832;9.126;2022-10-19T00:43:18;99201.59;;;14.24;100.00
19108;BME280;9686;48.832;9.126;2022-10-19T00:45:44;99197.25;;;14.17;100.00
19108;BME280;9686;48.832;9.126;2022-10-19T00:48:13;99195.47;;;14.25;100.00
19108;BME280;9686;48.832;9.126;2022-10-19T00:50:40;99198.16;;;14.13;100.00
19108;BME280;9686;48.832;9.126;2022-10-19T00:53:06;99195.56;;;14.07;100.00
19108;BME280;9686;48.832;9.126;2022-10-19T00:55:32;99187.69;;;14.04;100.00
19108;BME280;9686;48.832;9.126;2022-10-19T00:57:59;99195.53;;;14.11;100.00
19108;BME280;9686;48.832;9.126;2022-10-19T01:00:26;99192.91;;;14.14;100.00
19108;BME280;9686;48.832;9.126;2022-10-19T01:02:52;99192.94;;;14.02;100.00
19108;BME280;9686;48.832;9.126;2022-10-19T01:05:18;99199.88;;;14.20;100.00
19108;BME280;9686;48.832;9.126;2022-10-19T01:07:43;99199.06;;;14.10;100.00
19108;BME280;9686;48.832;9.126;2022-10-19T01:10:09;99194.66;;;14.15;100.00
19108;BME280;9686;48.832;9.126;2022-10-19T01:20:32;99197.31;;;14.09;100.00
19108;BME280;9686;48.832;9.126;2022-10-19T01:26:24;99199.88;;;14.17;100.00
19108;BME280;9686;48.832;9.126;2022-10-19T01:31:47;99197.19;;;14.32;100.00
19108;BME280;9686;48.832;9.126;2022-10-19T01:34:33;99187.56;;;14.37;100.00
19108;BME280;9686;48.832;9.126;2022-10-19T01:39:54;99184.03;;;14.41;100.00
19108;BME280;9686;48.832;9.126;2022-10-19T01:44:59;99178.66;;;14.66;100.00
19108;BME280;9686;48.832;9.126;2022-10-19T01:47:34;99165.44;;;14.78;100.00
19108;BME280;9686;48.832;9.126;2022-10-19T01:50:16;99154.97;;;14.75;100.00
19108;BME280;9686;48.832;9.126;2022-10-19T01:52:43;99162.88;;;14.70;100.00
19108;BME280;9686;48.832;9.126;2022-10-19T01:55:11;99167.28;;;14.67;100.00
19108;BME280;9686;48.832;9.126;2022-10-19T01:57:42;99166.34;;;14.72;100.00
19108;BME280;9686;48.832;9.126;2022-10-19T02:00:11;99161.13;;;14.71;100.00
19108;BME280;9686;48.832;9.126;2022-10-19T02:02:41;99161.09;;;14.74;100.00
19108;BME280;9686;48.832;9.126;2022-10-19T02:05:09;99166.38;;;14.71;100.00
19108;BME280;9686;48.832;9.126;2022-10-19T02:07:36;99162.84;;;14.72;100.00
19108;BME280;9686;48.832;9.126;2022-10-19T02:10:02;99166.34;;;14.75;100.00
19108;BME280;9686;48.832;9.126;2022-10-19T02:12:30;99168.06;;;14.76;100.00
19108;BME280;9686;48.832;9.126;2022-10-19T02:14:58;99174.19;;;14.77;100.00
19108;BME280;9686;48.832;9.126;2022-10-19T02:17:30;99163.69;;;14.75;100.00
19108;BME280;9686;48.832;9.126;2022-10-19T02:19:58;99164.59;;;14.73;100.00
19108;BME280;9686;48.832;9.126;2022-10-19T02:22:24;99163.69;;;14.77;100.00
19108;BME280;9686;48.832;9.126;2022-10-19T02:24:49;99162.78;;;14.79;100.00
19108;BME280;9686;48.832;9.126;2022-10-19T02:27:15;99154.03;;;14.82;100.00
19108;BME280;9686;48.832;9.126;2022-10-19T02:29:41;99156.53;;;14.99;100.00
19108;BME280;9686;48.832;9.126;2022-10-19T02:32:07;99150.47;;;14.91;100.00
19108;BME280;9686;48.832;9.126;2022-10-19T02:34:34;99146.09;;;14.90;100.00
19108;BME280;9686;48.832;9.126;2022-10-19T02:37:00;99149.50;;;15.01;100.00
19108;BME280;9686;48.832;9.126;2022-10-19T02:39:26;99149.50;;;15.01;100.00
19108;BME280;9686;48.832;9.126;2022-10-19T02:42:03;99151.25;;;15.00;100.00
19108;BME280;9686;48.832;9.126;2022-10-19T02:44:35;99139.88;;;15.01;100.00
19108;BME280;9686;48.832;9.126;2022-10-19T02:47:08;99146.84;;;15.02;100.00
19108;BME280;9686;48.832;9.126;2022-10-19T02:49:35;99145.16;;;14.98;100.00
19108;BME280;9686;48.832;9.126;2022-10-19T02:52:06;99145.97;;;15.05;100.00
19108;BME280;9686;48.832;9.126;2022-10-19T02:54:32;99144.19;;;15.10;100.00
19108;BME280;9686;48.832;9.126;2022-10-19T02:56:58;99137.19;;;15.10;100.00
19108;BME280;9686;48.832;9.126;2022-10-19T02:59:24;99132.81;;;15.09;100.00
19108;BME280;9686;48.832;9.126;2022-10-19T03:01:49;99143.22;;;15.19;100.00
19108;BME280;9686;48.832;9.126;2022-10-19T03:04:15;99130.81;;;15.31;100.00
19108;BME280;9686;48.832;9.126;2022-10-19T03:06:41;99128.16;;;15.37;100.00
19108;BME280;9686;48.832;9.126;2022-10-19T03:09:06;99130.69;;;15.43;100.00
19108;BME280;9686;48.832;9.126;2022-10-19T03:11:32;99123.81;;;15.30;100.00
19108;BME280;9686;48.832;9.126;2022-10-19T03:13:57;99129.16;;;15.23;100.00
19108;BME280;9686;48.832;9.126;2022-10-19T03:16:23;99129.19;;;15.20;100.00
19108;BME280;9686;48.832;9.126;2022-10-19T03:18:49;99122.19;;;15.20;100.00
19108;BME280;9686;48.832;9.126;2022-10-19T03:21:15;99125.72;;;15.18;100.00
19108;BME280;9686;48.832;9.126;2022-10-19T03:23:40;99121.38;;;15.14;100.00
19108;BME280;9686;48.832;9.126;2022-10-19T03:26:07;99126.63;;;15.15;100.00
19108;BME280;9686;48.832;9.126;2022-10-19T03:28:34;99123.13;;;15.15;100.00
19108;BME280;9686;48.832;9.126;2022-10-19T03:30:59;99117.84;;;15.16;100.00
19108;BME280;9686;48.832;9.126;2022-10-19T03:33:24;99126.59;;;15.18;100.00
19108;BME280;9686;48.832;9.126;2022-10-19T03:35:51;99126.56;;;15.20;100.00
19108;BME280;9686;48.832;9.126;2022-10-19T03:38:35;99118.69;;;15.20;100.00
19108;BME280;9686;48.832;9.126;2022-10-19T03:41:04;99127.41;;;15.23;100.00
19108;BME280;9686;48.832;9.126;2022-10-19T03:43:30;99126.47;;;15.27;100.00
19108;BME280;9686;48.832;9.126;2022-10-19T03:45:55;99115.13;;;15.24;100.00
19108;BME280;9686;48.832;9.126;2022-10-19T03:48:20;99124.78;;;15.22;100.00
19108;BME280;9686;48.832;9.126;2022-10-19T03:50:46;99120.38;;;15.25;100.00
19108;BME280;9686;48.832;9.126;2022-10-19T03:53:11;99117.72;;;15.27;100.00
19108;BME280;9686;48.832;9.126;2022-10-19T03:55:36;99122.16;;;15.23;100.00
19108;BME280;9686;48.832;9.126;2022-10-19T03:58:01;99128.25;;;15.25;100.00
19108;BME280;9686;48.832;9.126;2022-10-19T04:00:27;99121.25;;;15.26;100.00
19108;BME280;9686;48.832;9.126;2022-10-19T04:02:52;99128.19;;;15.30;100.00
19108;BME280;9686;48.832;9.126;2022-10-19T04:05:17;99128.25;;;15.27;100.00
19108;BME280;9686;48.832;9.126;2022-10-19T04:07:43;99123.00;;;15.27;100.00
19108;BME280;9686;48.832;9.126;2022-10-19T04:10:08;99129.13;;;15.26;100.00
19108;BME280;9686;48.832;9.126;2022-10-19T04:12:33;99136.13;;;15.25;100.00
19108;BME280;9686;48.832;9.126;2022-10-19T04:14:59;99136.13;;;15.27;100.00
19108;BME280;9686;48.832;9.126;2022-10-19T04:17:24;99135.19;;;15.32;100.00
19108;BME280;9686;48.832;9.126;2022-10-19T04:19:50;99130.78;;;15.36;100.00
19108;BME280;9686;48.832;9.126;2022-10-19T04:22:15;99127.28;;;15.34;100.00
19108;BME280;9686;48.832;9.126;2022-10-19T04:24:40;99131.66;;;15.38;100.00
19108;BME280;9686;48.832;9.126;2022-10-19T04:27:05;99121.13;;;15.39;100.00
19108;BME280;9686;48.832;9.126;2022-10-19T04:29:31;99125.50;;;15.40;100.00
19108;BME280;9686;48.832;9.126;2022-10-19T04:31:56;99127.25;;;15.38;100.00
19108;BME280;9686;48.832;9.126;2022-10-19T04:34:22;99131.66;;;15.38;100.00
19108;BME280;9686;48.832;9.126;2022-10-19T04:36:48;99130.75;;;15.40;100.00
19108;BME280;9686;48.832;9.126;2022-10-19T04:39:13;99137.72;;;15.43;100.00
19108;BME280;9686;48.832;9.126;2022-10-19T04:41:39;99139.44;;;15.46;100.00
19108;BME280;9686;48.832;9.126;2022-10-19T04:44:05;99132.41;;;15.48;100.00
19108;BME280;9686;48.832;9.126;2022-10-19T04:46:33;99130.69;;;15.43;100.00
19108;BME280;9686;48.832;9.126;2022-10-19T04:48:59;99135.09;;;15.43;100.00
19108;BME280;9686;48.832;9.126;2022-10-19T04:51:25;99130.66;;;15.48;100.00
19108;BME280;9686;48.832;9.126;2022-10-19T04:53:51;99130.66;;;15.48;100.00
19108;BME280;9686;48.832;9.126;2022-10-19T04:56:21;99124.53;;;15.48;100.00
19108;BME280;9686;48.832;9.126;2022-10-19T04:58:48;99126.25;;;15.49;100.00
19108;BME280;9686;48.832;9.126;2022-10-19T05:01:16;99135.88;;;15.51;100.00
19108;BME280;9686;48.832;9.126;2022-10-19T05:03:41;99123.59;;;15.52;100.00
19108;BME280;9686;48.832;9.126;2022-10-19T05:06:07;99121.84;;;15.51;100.00
19108;BME280;9686;48.832;9.126;2022-10-19T05:08:34;99131.56;;;15.46;100.00
19108;BME280;9686;48.832;9.126;2022-10-19T05:11:09;99130.66;;;15.47;100.00
19108;BME280;9686;48.832;9.126;2022-10-19T05:13:35;99133.31;;;15.45;100.00
19108;BME280;9686;48.832;9.126;2022-10-19T05:16:03;99138.56;;;15.45;100.00
19108;BME280;9686;48.832;9.126;2022-10-19T05:18:28;99140.31;;;15.46;100.00
19108;BME280;9686;48.832;9.126;2022-10-19T05:23:26;99136.88;;;15.41;100.00
19108;BME280;9686;48.832;9.126;2022-10-19T05:26:04;99137.69;;;15.46;100.00
19108;BME280;9686;48.832;9.126;2022-10-19T05:28:29;99130.69;;;15.43;100.00
19108;BME280;9686;48.832;9.126;2022-10-19T05:31:04;99129.88;;;15.38;100.00
19108;BME280;9686;48.832;9.126;2022-10-19T05:33:29;99124.59;;;15.43;100.00
19108;BME280;9686;48.832;9.126;2022-10-19T05:35:54;99120.13;;;15.50;100.00
19108;BME280;9686;48.832;9.126;2022-10-19T05:38:20;99116.59;;;15.51;100.00
19108;BME280;9686;48.832;9.126;2022-10-19T05:40:45;99121.91;;;15.48;100.00
19108;BME280;9686;48.832;9.126;2022-10-19T05:43:11;99118.34;;;15.52;100.00
19108;BME280;9686;48.832;9.126;2022-10-19T05:45:36;99108.81;;;15.43;100.00
19108;BME280;9686;48.832;9.126;2022-10-19T05:48:01;99115.75;;;15.49;100.00
19108;BME280;9686;48.832;9.126;2022-10-19T05:50:26;99117.50;;;15.50;100.00
19108;BME280;9686;48.832;9.126;2022-10-19T05:52:52;99112.22;;;15.50;100.00
19108;BME280;9686;48.832;9.126;2022-10-19T05:55:17;99113.13;;;15.49;100.00
19108;BME280;9686;48.832;9.126;2022-10-19T05:57:42;99115.72;;;15.52;100.00
19108;BME280;9686;48.832;9.126;2022-10-19T06:00:08;99114.81;;;15.54;100.00
19108;BME280;9686;48.832;9.126;2022-10-19T06:02:34;99121.81;;;15.54;100.00
19108;BME280;9686;48.832;9.126;2022-10-19T06:04:59;99115.66;;;15.56;100.00
19108;BME280;9686;48.832;9.126;2022-10-19T06:07:24;99121.78;;;15.60;100.00
19108;BME280;9686;48.832;9.126;2022-10-19T06:09:49;99119.16;;;15.58;100.00
19108;BME280;9686;48.832;9.126;2022-10-19T06:12:17;99122.66;;;15.62;100.00
19108;BME280;9686;48.832;9.126;2022-10-19T06:14:43;99119.13;;;15.63;100.00
19108;BME280;9686;48.832;9.126;2022-10-19T06:17:08;99120.84;;;15.67;100.00
19108;BME280;9686;48.832;9.126;2022-10-19T06:19:35;99112.03;;;15.71;100.00
19108;BME280;9686;48.832;9.126;2022-10-19T06:22:00;99115.66;;;15.56;100.00
19108;BME280;9686;48.832;9.126;2022-10-19T06:24:25;99114.81;;;15.54;100.00
19108;BME280;9686;48.832;9.126;2022-10-19T06:26:51;99127.03;;;15.57;100.00
19108;BME280;9686;48.832;9.126;2022-10-19T06:29:16;99121.91;;;15.46;100.00
19108;BME280;9686;48.832;9.126;2022-10-19T06:31:42;99125.53;;;15.37;100.00
19108;BME280;9686;48.832;9.126;2022-10-19T06:34:07;99126.41;;;15.33;100.00
19108;BME280;9686;48.832;9.126;2022-10-19T06:36:33;99130.00;;;15.26;100.00
19108;BME280;9686;48.832;9.126;2022-10-19T06:38:59;99128.28;;;15.24;100.00
19108;BME280;9686;48.832;9.126;2022-10-19T06:41:26;99125.72;;;15.16;100.00
19108;BME280;9686;48.832;9.126;2022-10-19T06:43:52;99128.28;;;15.24;100.00
19108;BME280;9686;48.832;9.126;2022-10-19T06:46:20;99133.56;;;15.21;100.00
19108;BME280;9686;48.832;9.126;2022-10-19T06:48:55;99130.91;;;15.24;100.00
19108;BME280;9686;48.832;9.126;2022-10-19T06:51:21;99131.78;;;15.24;100.00
19108;BME280;9686;48.832;9.126;2022-10-19T06:53:46;99133.47;;;15.30;100.00
19108;BME280;9686;48.832;9.126;2022-10-19T06:56:12;99125.53;;;15.33;100.00
19108;BME280;9686;48.832;9.126;2022-10-19T06:58:38;99129.00;;;15.39;100.00
19108;BME280;9686;48.832;9.126;2022-10-19T07:01:04;99126.31;;;15.44;100.00
19108;BME280;9686;48.832;9.126;2022-10-19T07:03:31;99134.19;;;15.44;100.00
19108;BME280;9686;48.832;9.126;2022-10-19T07:05:59;99127.19;;;15.45;100.00
19108;BME280;9686;48.832;9.126;2022-10-19T07:08:26;99128.06;;;15.43;100.00
19108;BME280;9686;48.832;9.126;2022-10-19T07:10:54;99132.34;;;15.52;100.00
19108;BME280;9686;48.832;9.126;2022-10-19T07:13:19;99127.91;;;15.62;100.00
19108;BME280;9686;48.832;9.126;2022-10-19T07:15:45;99114.72;;;15.65;100.00
19108;BME280;9686;48.832;9.126;2022-10-19T07:18:11;99123.44;;;15.68;100.00
19108;BME280;9686;48.832;9.126;2022-10-19T07:20:36;99116.34;;;15.75;100.00
19108;BME280;9686;48.832;9.126;2022-10-19T07:23:02;99123.38;;;15.73;100.00
19108;BME280;9686;48.832;9.126;2022-10-19T07:25:27;99120.75;;;15.73;100.00
19108;BME280;9686;48.832;9.126;2022-10-19T07:27:54;99126.84;;;15.77;100.00
19108;BME280;9686;48.832;9.126;2022-10-19T07:30:19;99132.94;;;15.80;100.00
19108;BME280;9686;48.832;9.126;2022-10-19T07:32:44;99120.44;;;15.99;100.00
19108;BME280;9686;48.832;9.126;2022-10-19T07:35:10;99112.38;;;16.10;100.00
19108;BME280;9686;48.832;9.126;2022-10-19T07:37:35;99112.41;;;16.08;100.00
19108;BME280;9686;48.832;9.126;2022-10-19T07:40:01;99118.59;;;16.04;100.00
19108;BME280;9686;48.832;9.126;2022-10-19T07:42:27;99122.00;;;16.12;100.00
19108;BME280;9686;48.832;9.126;2022-10-19T07:44:54;99118.63;;;16.02;100.00
19108;BME280;9686;48.832;9.126;2022-10-19T07:47:20;99123.78;;;16.09;100.00
19108;BME280;9686;48.832;9.126;2022-10-19T07:49:45;99120.31;;;16.07;100.00
19108;BME280;9686;48.832;9.126;2022-10-19T07:52:10;99122.06;;;16.08;100.00
19108;BME280;9686;48.832;9.126;2022-10-19T07:54:36;99131.59;;;16.16;100.00
19108;BME280;9686;48.832;9.126;2022-10-19T07:57:01;99124.44;;;16.26;100.00
19108;BME280;9686;48.832;9.126;2022-10-19T07:59:26;99112.94;;;16.31;100.00
19108;BME280;9686;48.832;9.126;2022-10-19T08:01:51;99108.44;;;16.41;100.00
19108;BME280;9686;48.832;9.126;2022-10-19T08:04:18;99112.63;;;16.53;100.00
19108;BME280;9686;48.832;9.126;2022-10-19T08:06:43;99115.28;;;16.53;100.00
19108;BME280;9686;48.832;9.126;2022-10-19T08:09:09;99113.31;;;16.64;100.00
19108;BME280;9686;48.832;9.126;2022-10-19T08:11:35;99109.84;;;16.67;100.00
19108;BME280;9686;48.832;9.126;2022-10-19T08:14:01;99101.78;;;16.76;100.00
19108;BME280;9686;48.832;9.126;2022-10-19T08:16:35;99098.91;;;16.89;100.00
19108;BME280;9686;48.832;9.126;2022-10-19T08:19:07;99083.91;;;16.94;100.00
19108;BME280;9686;48.832;9.126;2022-10-19T08:21:34;99087.06;;;17.13;100.00
19108;BME280;9686;48.832;9.126;2022-10-19T08:23:59;99082.91;;;17.02;100.00
19108;BME280;9686;48.832;9.126;2022-10-19T08:26:27;99076.78;;;17.00;100.00
19108;BME280;9686;48.832;9.126;2022-10-19T08:28:58;99088.25;;;16.97;100.00
19108;BME280;9686;48.832;9.126;2022-10-19T08:31:23;99082.78;;;17.08;100.00
19108;BME280;9686;48.832;9.126;2022-10-19T08:33:49;99084.66;;;17.01;100.00
19108;BME280;9686;48.832;9.126;2022-10-19T08:36:14;99093.38;;;17.05;100.00
19108;BME280;9686;48.832;9.126;2022-10-19T08:38:40;99083.75;;;17.02;100.00
19108;BME280;9686;48.832;9.126;2022-10-19T08:43:37;99096.16;;;16.97;100.00
19108;BME280;9686;48.832;9.126;2022-10-19T08:49:23;99096.19;;;16.95;100.00
19108;BME280;9686;48.832;9.126;2022-10-19T08:51:56;99100.53;;;16.98;100.00
19108;BME280;9686;48.832;9.126;2022-10-19T08:54:23;99091.88;;;16.91;100.00
19108;BME280;9686;48.832;9.126;2022-10-19T08:59:58;99093.59;;;16.91;100.00
19108;BME280;9686;48.832;9.126;2022-10-19T09:05:24;99093.59;;;16.91;100.00
19108;BME280;9686;48.832;9.126;2022-10-19T09:07:53;99085.66;;;16.94;100.00
19108;BME280;9686;48.832;9.126;2022-10-19T09:10:24;99079.56;;;16.92;100.00
19108;BME280;9686;48.832;9.126;2022-10-19T09:12:59;99071.53;;;17.00;100.00
19108;BME280;9686;48.832;9.126;2022-10-19T09:15:52;99063.75;;;16.92;100.00
19108;BME280;9686;48.832;9.126;2022-10-19T09:18:25;99069.06;;;16.89;100.00
19108;BME280;9686;48.832;9.126;2022-10-19T09:21:05;99074.31;;;16.89;100.00
19108;BME280;9686;48.832;9.126;2022-10-19T09:23:40;99072.69;;;16.82;100.00
19108;BME280;9686;48.832;9.126;2022-10-19T09:26:14;99070.09;;;16.80;100.00
19108;BME280;9686;48.832;9.126;2022-10-19T09:28:46;99060.34;;;16.85;100.00
19108;BME280;9686;48.832;9.126;2022-10-19T09:31:37;99060.31;;;16.87;100.00
19108;BME280;9686;48.832;9.126;2022-10-19T09:34:31;99062.03;;;16.88;100.00
19108;BME280;9686;48.832;9.126;2022-10-19T09:36:58;99069.91;;;16.92;100.00
19108;BME280;9686;48.832;9.126;2022-10-19T09:39:25;99069.91;;;16.91;100.00
19108;BME280;9686;48.832;9.126;2022-10-19T09:41:59;99069.03;;;16.90;100.00
19108;BME280;9686;48.832;9.126;2022-10-19T09:44:29;99061.03;;;16.97;100.00
19108;BME280;9686;48.832;9.126;2022-10-19T09:50:09;99067.94;;;17.04;100.00
19108;BME280;9686;48.832;9.126;2022-10-19T09:52:39;99064.47;;;17.00;100.00
19108;BME280;9686;48.832;9.126;2022-10-19T09:55:18;99044.25;;;17.02;100.00
19108;BME280;9686;48.832;9.126;2022-10-19T09:57:50;99058.00;;;17.18;100.00
19108;BME280;9686;48.832;9.126;2022-10-19T10:00:31;99055.50;;;17.10;100.00
19108;BME280;9686;48.832;9.126;2022-10-19T10:02:57;99051.00;;;17.15;100.00
19108;BME280;9686;48.832;9.126;2022-10-19T10:05:37;99045.88;;;17.08;100.00
19108;BME280;9686;48.832;9.126;2022-10-19T10:08:04;99043.28;;;17.06;100.00
19108;BME280;9686;48.832;9.126;2022-10-19T10:10:37;99051.34;;;16.99;100.00
19108;BME280;9686;48.832;9.126;2022-10-19T10:13:04;99042.59;;;16.97;100.00
19108;BME280;9686;48.832;9.126;2022-10-19T10:15:40;99035.50;;;17.00;100.00
19108;BME280;9686;48.832;9.126;2022-10-19T10:18:11;99043.50;;;16.95;100.00
19108;BME280;9686;48.832;9.126;2022-10-19T10:20:55;99040.75;;;17.02;100.00
19108;BME280;9686;48.832;9.126;2022-10-19T10:23:26;99053.16;;;16.95;100.00
19108;BME280;9686;48.832;9.126;2022-10-19T10:25:57;99049.53;;;17.01;100.00
19108;BME280;9686;48.832;9.126;2022-10-19T10:28:27;99052.19;;;17.01;100.00
19108;BME280;9686;48.832;9.126;2022-10-19T10:31:05;99048.81;;;16.92;100.00
19108;BME280;9686;48.832;9.126;2022-10-19T10:33:34;99050.69;;;16.86;100.00
19108;BME280;9686;48.832;9.126;2022-10-19T10:36:03;99042.56;;;16.98;100.00
19108;BME280;9686;48.832;9.126;2022-10-19T10:38:38;99036.44;;;16.98;100.00
19108;BME280;9686;48.832;9.126;2022-10-19T10:41:11;99030.31;;;16.95;100.00
19108;BME280;9686;48.832;9.126;2022-10-19T10:43:49;99032.84;;;17.02;100.00
19108;BME280;9686;48.832;9.126;2022-10-19T10:46:19;99027.28;;;17.15;100.00
19108;BME280;9686;48.832;9.126;2022-10-19T10:49:03;99020.22;;;17.19;100.00
19108;BME280;9686;48.832;9.126;2022-10-19T10:51:33;99021.00;;;17.24;100.00
19108;BME280;9686;48.832;9.126;2022-10-19T10:54:16;99012.75;;;17.39;100.00
19108;BME280;9686;48.832;9.126;2022-10-19T10:56:43;99010.16;;;17.38;100.00
19108;BME280;9686;48.832;9.126;2022-10-19T10:59:24;99005.56;;;17.49;100.00
19108;BME280;9686;48.832;9.126;2022-10-19T11:02:13;99009.16;;;17.45;100.00
19108;BME280;9686;48.832;9.126;2022-10-19T11:04:47;98999.34;;;17.51;100.00
19108;BME280;9686;48.832;9.126;2022-10-19T11:07:20;99001.81;;;17.59;100.00
19108;BME280;9686;48.832;9.126;2022-10-19T11:09:52;98999.88;;;17.67;100.00
19108;BME280;9686;48.832;9.126;2022-10-19T11:12:32;98997.25;;;17.67;100.00
19108;BME280;9686;48.832;9.126;2022-10-19T11:15:07;98994.50;;;17.73;100.00
19108;BME280;9686;48.832;9.126;2022-10-19T11:17:39;98993.88;;;17.59;100.00
19108;BME280;9686;48.832;9.126;2022-10-19T11:20:13;98981.84;;;17.87;100.00
19108;BME280;9686;48.832;9.126;2022-10-19T11:23:05;98978.38;;;17.85;100.00
19108;BME280;9686;48.832;9.126;2022-10-19T11:31:00;98968.75;;;17.84;100.00
19108;BME280;9686;48.832;9.126;2022-10-19T11:33:43;98965.19;;;17.85;100.00
19108;BME280;9686;48.832;9.126;2022-10-19T11:36:52;98947.56;;;17.87;100.00
19108;BME280;9686;48.832;9.126;2022-10-19T11:42:19;98949.66;;;18.10;100.00
19108;BME280;9686;48.832;9.126;2022-10-19T11:44:50;98937.38;;;18.09;100.00
19108;BME280;9686;48.832;9.126;2022-10-19T11:47:36;98925.53;;;18.26;100.00
19108;BME280;9686;48.832;9.126;2022-10-19T11:55:35;98909.28;;;18.41;100.00
19108;BME280;9686;48.832;9.126;2022-10-19T12:00:45;98899.97;;;18.28;100.00
19108;BME280;9686;48.832;9.126;2022-10-19T12:12:41;98899.41;;;18.15;100.00
19108;BME280;9686;48.832;9.126;2022-10-19T12:15:31;98899.34;;;18.16;100.00
19108;BME280;9686;48.832;9.126;2022-10-19T12:18:13;98895.03;;;18.14;100.00
19108;BME280;9686;48.832;9.126;2022-10-19T12:20:51;98893.66;;;17.99;100.00
19108;BME280;9686;48.832;9.126;2022-10-19T12:23:42;98887.28;;;18.08;100.00
19108;BME280;9686;48.832;9.126;2022-10-19T12:26:10;98888.47;;;17.96;100.00
19108;BME280;9686;48.832;9.126;2022-10-19T12:28:49;98881.41;;;17.95;100.00
19108;BME280;9686;48.832;9.126;2022-10-19T12:31:17;98884.06;;;17.95;100.00
19108;BME280;9686;48.832;9.126;2022-10-19T12:36:34;98882.19;;;18.00;100.00
19108;BME280;9686;48.832;9.126;2022-10-19T12:39:17;98868.59;;;18.15;100.00
19108;BME280;9686;48.832;9.126;2022-10-19T12:44:42;98864.47;;;18.70;100.00
19108;BME280;9686;48.832;9.126;2022-10-19T12:47:20;98842.75;;;18.92;100.00
19108;BME280;9686;48.832;9.126;2022-10-19T12:49:50;98849.22;;;19.11;100.00
19108;BME280;9686;48.832;9.126;2022-10-19T12:52:35;98852.94;;;19.33;100.00
19108;BME280;9686;48.832;9.126;2022-10-19T12:55:11;98837.34;;;19.24;100.00
19108;BME280;9686;48.832;9.126;2022-10-19T12:57:38;98838.91;;;19.31;100.00
19108;BME280;9686;48.832;9.126;2022-10-19T13:00:25;98837.00;;;19.64;100.00
19108;BME280;9686;48.832;9.126;2022-10-19T13:03:43;98823.88;;;19.61;100.00
19108;BME280;9686;48.832;9.126;2022-10-19T13:11:19;98818.00;;;19.50;100.00
19108;BME280;9686;48.832;9.126;2022-10-19T13:17:07;98824.72;;;19.62;100.00
19108;BME280;9686;48.832;9.126;2022-10-19T13:19:33;98817.50;;;19.67;100.00
19108;BME280;9686;48.832;9.126;2022-10-19T13:22:25;98813.06;;;19.67;100.00
19108;BME280;9686;48.832;9.126;2022-10-19T13:25:22;98806.00;;;19.68;100.00
19108;BME280;9686;48.832;9.126;2022-10-19T13:28:01;98800.72;;;19.68;100.00
19108;BME280;9686;48.832;9.126;2022-10-19T13:47:36;98786.19;;;19.27;100.00
19108;BME280;9686;48.832;9.126;2022-10-19T13:50:15;98787.31;;;19.18;100.00
19108;BME280;9686;48.832;9.126;2022-10-19T13:53:08;98779.97;;;19.28;100.00
19108;BME280;9686;48.832;9.126;2022-10-19T13:56:02;98779.78;;;19.34;100.00
19108;BME280;9686;48.832;9.126;2022-10-19T14:08:57;98755.59;;;19.45;100.00
19108;BME280;9686;48.832;9.126;2022-10-19T14:11:37;98744.97;;;19.46;100.00
19108;BME280;9686;48.832;9.126;2022-10-19T14:16:53;98737.72;;;19.53;100.00
19108;BME280;9686;48.832;9.126;2022-10-19T14:19:30;98733.38;;;19.50;100.00
19108;BME280;9686;48.832;9.126;2022-10-19T14:21:59;98731.59;;;19.51;100.00
19108;BME280;9686;48.832;9.126;2022-10-19T14:24:34;98724.03;;;19.40;100.00
19108;BME280;9686;48.832;9.126;2022-10-19T14:27:05;98731.22;;;19.36;100.00
19108;BME280;9686;48.832;9.126;2022-10-19T14:29:49;98732.72;;;19.44;100.00
19108;BME280;9686;48.832;9.126;2022-10-19T14:32:16;98725.16;;;19.33;100.00
19108;BME280;9686;48.832;9.126;2022-10-19T14:34:45;98718.25;;;19.29;100.00
19108;BME280;9686;48.832;9.126;2022-10-19T14:37:19;98712.00;;;19.31;100.00
19108;BME280;9686;48.832;9.126;2022-10-19T14:42:38;98727.38;;;19.19;100.00
19108;BME280;9686;48.832;9.126;2022-10-19T14:45:11;98713.13;;;19.23;100.00
19108;BME280;9686;48.832;9.126;2022-10-19T14:47:54;98711.56;;;19.17;100.00
19108;BME280;9686;48.832;9.126;2022-10-19T14:50:24;98716.09;;;19.14;100.00
19108;BME280;9686;48.832;9.126;2022-10-19T14:52:53;98717.88;;;19.13;100.00
19108;BME280;9686;48.832;9.126;2022-10-19T14:55:22;98719.59;;;19.14;100.00
19108;BME280;9686;48.832;9.126;2022-10-19T14:57:49;98721.28;;;19.17;100.00
19108;BME280;9686;48.832;9.126;2022-10-19T15:00:21;98713.31;;;19.18;100.00
19108;BME280;9686;48.832;9.126;2022-10-19T15:05:25;98711.22;;;19.56;100.00
19108;BME280;9686;48.832;9.126;2022-10-19T15:07:51;98708.63;;;19.79;100.00
19108;BME280;9686;48.832;9.126;2022-10-19T15:10:24;98712.88;;;19.58;100.00